Time;durP1;ratioP1;P1;durP2;ratioP2;P2;SDS_P1;SDS_P2;PMS_P1;PMS_P2;Temp;Humidity;BMP_temperature;BMP_pressure;BME280_temperature;BME280_humidity;BME280_pressure;Samples;Min_cycle;Max_cycle;Signal;HPM_P1;HPM_P2
2022/08/25 00:00:16;;;;;;;4.50;3.38;;;23.80;51.30;;;26.53;38.53;97724.66;5007038;28;20064;-40
2022/08/25 00:02:44;;;;;;;3.63;3.15;;;23.80;51.60;;;26.47;38.22;97714.78;5007886;28;20064;-40
2022/08/25 00:05:27;;;;;;;3.72;2.58;;;23.80;51.60;;;26.44;38.79;97716.09;5008102;28;20057;-40
2022/08/25 00:07:56;;;;;;;4.63;3.70;;;23.70;51.90;;;26.42;38.76;97722.91;5008064;28;20372;-40
2022/08/25 00:10:24;;;;;;;3.10;2.80;;;23.70;51.90;;;26.40;38.85;97727.81;5007670;28;20054;-40
2022/08/25 00:12:52;;;;;;;4.15;3.00;;;23.70;52.10;;;26.38;38.52;97713.63;5007030;28;20056;-40
2022/08/25 00:15:21;;;;;;;3.00;2.70;;;23.70;52.20;;;26.36;38.57;97711.16;5007949;28;20128;-40
2022/08/25 00:17:51;;;;;;;3.92;2.85;;;23.70;52.10;;;26.32;39.03;97710.84;5006992;28;20049;-40
2022/08/25 00:20:19;;;;;;;3.60;3.00;;;23.70;52.10;;;26.31;39.05;97713.84;5008006;28;20057;-40
2022/08/25 00:22:48;;;;;;;4.65;3.42;;;23.70;52.30;;;26.27;38.71;97710.81;5005995;28;20532;-40
2022/08/25 00:25:17;;;;;;;3.83;3.45;;;23.60;52.40;;;26.24;39.15;97713.25;5006239;28;20064;-40
2022/08/25 00:27:46;;;;;;;4.05;3.63;;;23.60;52.50;;;26.21;39.03;97711.88;5007726;28;20054;-40
2022/08/25 00:30:16;;;;;;;5.00;3.40;;;23.50;52.60;;;26.17;39.34;97710.72;5005955;28;20315;-40
2022/08/25 00:32:45;;;;;;;5.38;4.00;;;23.40;52.60;;;26.10;39.34;97721.84;5007376;28;20057;-40
2022/08/25 00:35:25;;;;;;;4.38;3.75;;;23.30;53.30;;;26.03;39.02;97721.25;5007545;28;20056;-40
2022/08/25 00:37:53;;;;;;;5.55;3.90;;;23.20;53.50;;;25.95;39.54;97724.44;5007925;28;20062;-40
2022/08/25 00:40:24;;;;;;;5.28;3.65;;;23.10;53.80;;;25.85;39.70;97722.41;5006884;28;20049;-40
2022/08/25 00:42:53;;;;;;;3.80;3.40;;;22.90;54.40;;;25.77;39.71;97730.25;5006494;28;20370;-40
2022/08/25 00:45:22;;;;;;;4.90;4.00;;;22.80;54.30;;;25.68;39.88;97724.44;5006012;28;20359;-40
2022/08/25 00:47:49;;;;;;;5.10;3.78;;;22.70;54.60;;;25.65;39.71;97728.50;5005597;28;20350;-40
2022/08/25 00:50:18;;;;;;;7.55;4.45;;;22.70;54.60;;;25.60;39.86;97722.97;5007929;28;20060;-40
2022/08/25 00:52:52;;;;;;;4.25;3.85;;;22.70;55.00;;;25.56;39.99;97718.31;5007161;28;20056;-40
2022/08/25 00:55:29;;;;;;;5.50;4.32;;;22.60;55.40;;;25.49;40.00;97719.34;5006325;28;20128;-40
2022/08/25 00:58:19;;;;;;;6.15;4.05;;;22.50;55.80;;;25.45;40.01;97720.09;5006427;28;20259;-40
2022/08/25 01:00:51;;;;;;;4.95;3.83;;;22.50;56.00;;;25.39;40.53;97718.41;5005895;28;20057;-40
2022/08/25 01:03:22;;;;;;;4.20;3.35;;;22.40;56.00;;;25.30;40.43;97721.56;5006541;28;20053;-40
2022/08/25 01:05:53;;;;;;;5.88;3.90;;;22.40;55.80;;;25.26;40.74;97714.16;5006906;28;20353;-40
2022/08/25 01:08:26;;;;;;;4.40;3.85;;;22.30;56.20;;;25.18;40.71;97714.56;5005199;28;20259;-40
2022/08/25 01:11:01;;;;;;;5.30;4.43;;;22.20;56.40;;;25.14;40.72;97711.53;5006619;28;20052;-40
2022/08/25 01:13:46;;;;;;;6.03;4.93;;;22.20;56.40;;;25.09;40.86;97709.56;5006388;28;20042;-40
2022/08/25 01:16:15;;;;;;;6.55;4.13;;;22.10;57.30;;;25.04;41.18;97709.50;5005721;28;20397;-40
2022/08/25 01:18:55;;;;;;;4.63;4.18;;;22.00;57.00;;;24.97;41.02;97708.88;5007078;28;20041;-40
2022/08/25 01:21:26;;;;;;;5.07;4.13;;;22.00;58.00;;;24.92;41.47;97706.09;5005819;28;20050;-40
2022/08/25 01:23:57;;;;;;;7.38;4.68;;;22.00;57.20;;;24.89;41.73;97710.16;5006214;28;20248;-40
2022/08/25 01:26:32;;;;;;;4.32;3.83;;;22.00;57.70;;;24.91;41.73;97696.25;5005813;28;20706;-40
2022/08/25 01:29:21;;;;;;;4.50;3.92;;;22.00;57.50;;;24.90;41.77;97702.78;5007200;28;20370;-40
2022/08/25 01:32:04;;;;;;;7.80;4.63;;;22.10;57.50;;;24.90;41.63;97700.06;5007069;28;20060;-40
2022/08/25 01:34:36;;;;;;;4.68;4.07;;;22.00;57.50;;;24.88;41.90;97707.66;5006224;28;20260;-40
2022/08/25 01:37:04;;;;;;;5.85;4.80;;;22.00;57.80;;;24.84;41.90;97712.78;5007248;28;20113;-40
2022/08/25 01:39:35;;;;;;;5.40;4.35;;;21.90;57.70;;;24.82;42.05;97714.13;5005895;28;20045;-40
2022/08/25 01:42:22;;;;;;;5.45;4.82;;;22.00;57.70;;;24.81;41.76;97713.28;5007013;28;20061;-40
2022/08/25 01:44:50;;;;;;;4.40;4.00;;;21.90;58.40;;;24.76;41.91;97710.50;5006696;28;20049;-40
2022/08/25 01:47:18;;;;;;;5.20;4.72;;;21.90;58.10;;;24.69;42.20;97718.84;5006761;28;20053;-40
2022/08/25 01:49:46;;;;;;;5.43;4.40;;;21.80;58.10;;;24.64;42.32;97712.50;5006164;28;20108;-40
2022/08/25 01:52:31;;;;;;;4.43;4.03;;;21.80;58.40;;;24.65;42.41;97712.25;5005587;28;20386;-40
2022/08/25 01:54:58;;;;;;;4.72;4.32;;;21.80;59.40;;;24.64;42.41;97716.06;5006323;28;20060;-40
2022/08/25 01:57:30;;;;;;;4.95;4.28;;;21.70;58.60;;;24.58;42.57;97719.75;5009444;28;20456;-40
2022/08/25 01:59:58;;;;;;;4.97;4.45;;;21.70;59.00;;;24.57;42.62;97707.25;5009445;28;20056;-40
2022/08/25 02:02:26;;;;;;;6.45;4.50;;;21.70;59.00;;;24.54;42.71;97715.88;5009240;28;20255;-40
2022/08/25 02:04:58;;;;;;;5.25;4.20;;;21.70;59.10;;;24.52;42.91;97715.31;5010262;28;20244;-40
2022/08/25 02:07:26;;;;;;;6.20;4.38;;;21.60;59.20;;;24.47;42.90;97718.75;5009663;28;20088;-40
2022/08/25 02:09:54;;;;;;;4.93;4.43;;;21.60;59.30;;;24.47;43.05;97715.22;5010325;28;20050;-40
2022/08/25 02:12:25;;;;;;;5.05;3.90;;;21.60;59.50;;;24.43;43.06;97723.06;5009900;28;20056;-40
2022/08/25 02:14:53;;;;;;;5.15;4.15;;;21.50;59.70;;;24.41;43.11;97718.91;5010251;28;20052;-40
2022/08/25 02:17:20;;;;;;;4.18;3.78;;;21.50;59.60;;;24.36;43.10;97722.41;5009569;28;20060;-40
2022/08/25 02:19:48;;;;;;;5.07;3.97;;;21.50;59.90;;;24.31;43.09;97717.72;5009567;28;20053;-40
2022/08/25 02:22:17;;;;;;;6.72;5.05;;;21.40;59.90;;;24.29;43.30;97725.31;5040971;28;20217;-40
2022/08/25 02:24:45;;;;;;;11.40;4.80;;;21.40;60.00;;;24.27;43.44;97722.00;5010712;28;20066;-40
2022/08/25 02:27:13;;;;;;;4.50;3.88;;;21.40;60.10;;;24.26;43.35;97712.19;5024901;28;20057;-40
2022/08/25 02:29:41;;;;;;;4.60;4.15;;;21.40;60.10;;;24.25;43.55;97715.97;5040479;28;20049;-40
2022/08/25 02:32:10;;;;;;;6.80;3.78;;;21.40;60.30;;;24.20;43.58;97715.06;5010183;28;20045;-40
2022/08/25 02:34:40;;;;;;;5.53;3.63;;;21.30;60.50;;;24.18;43.63;97702.53;5007048;28;20061;-40
2022/08/25 02:37:08;;;;;;;6.70;5.00;;;21.30;60.50;;;24.18;43.51;97699.00;5008879;28;20054;-40
2022/08/25 02:39:35;;;;;;;4.30;3.70;;;21.30;60.50;;;24.16;43.45;97701.16;5008120;28;20049;-39
2022/08/25 02:42:05;;;;;;;5.07;3.45;;;21.30;60.50;;;24.10;43.63;97699.41;5008728;28;20057;-40
2022/08/25 02:44:34;;;;;;;4.43;3.60;;;21.20;60.60;;;24.10;43.76;97699.41;5009203;28;20120;-40
2022/08/25 02:47:02;;;;;;;8.68;4.35;;;21.20;60.60;;;24.09;43.68;97701.28;5010128;28;20057;-40
2022/08/25 02:49:30;;;;;;;6.35;4.15;;;21.30;60.70;;;24.08;43.83;97696.09;5008131;28;20046;-40
2022/08/25 02:51:59;;;;;;;5.05;3.60;;;21.20;60.70;;;24.06;43.66;97693.66;5009743;28;20042;-40
2022/08/25 02:54:28;;;;;;;4.55;3.95;;;21.20;61.00;;;24.01;43.99;97699.00;5007408;28;20068;-40
2022/08/25 02:56:56;;;;;;;5.82;4.35;;;21.10;61.20;;;24.00;43.86;97701.94;5008479;28;20060;-40
2022/08/25 02:59:23;;;;;;;4.43;4.00;;;21.10;61.20;;;23.97;43.82;97697.84;5009181;28;20057;-40
2022/08/25 03:01:51;;;;;;;4.45;3.85;;;21.10;61.30;;;23.92;44.03;97700.47;5008241;28;20064;-40
2022/08/25 03:04:19;;;;;;;6.60;3.83;;;21.00;61.40;;;23.90;44.18;97705.31;5010445;28;20054;-40
2022/08/25 03:06:47;;;;;;;6.75;4.32;;;21.00;61.50;;;23.89;44.13;97704.50;5009794;28;20050;-40
2022/08/25 03:09:15;;;;;;;5.32;4.57;;;21.00;61.60;;;23.84;44.44;97700.88;5009272;28;20336;-40
2022/08/25 03:11:43;;;;;;;4.70;4.25;;;20.90;62.20;;;23.79;44.43;97696.19;5007919;28;20056;-40
2022/08/25 03:14:11;;;;;;;7.80;4.63;;;20.80;62.50;;;23.73;44.75;97697.09;5008822;28;20711;-40
2022/08/25 03:16:41;;;;;;;6.60;5.72;;;20.80;63.10;;;23.69;44.99;97694.06;5008813;28;20064;-40
2022/08/25 03:19:13;;;;;;;;;;;20.70;63.60;;;23.77;44.15;97696.38;5007941;28;20042;-40
2022/08/25 03:21:41;;;;;;;5.30;4.40;;;20.60;65.80;;;23.68;44.69;97695.13;5007168;28;19923;-40
2022/08/25 03:24:08;;;;;;;4.38;3.97;;;20.60;64.20;;;23.57;45.19;97699.56;5006740;28;20057;-40
2022/08/25 03:26:52;;;;;;;6.47;4.20;;;20.50;64.40;;;23.51;45.13;97686.94;5007311;28;20056;-40
2022/08/25 03:29:31;;;;;;;5.43;4.35;;;20.50;64.60;;;23.49;45.02;97699.13;5007750;28;20052;-40
2022/08/25 03:31:59;;;;;;;5.35;4.22;;;20.50;65.60;;;23.42;45.35;97699.28;5006700;28;20056;-40
2022/08/25 03:34:29;;;;;;;5.70;4.80;;;20.50;65.30;;;23.34;45.84;97703.22;5008837;28;20056;-40
2022/08/25 03:36:58;;;;;;;5.53;4.57;;;20.40;65.40;;;23.31;45.70;97697.44;5007166;28;20375;-40
2022/08/25 03:39:26;;;;;;;5.25;4.15;;;20.40;65.40;;;23.31;45.59;97697.44;5007967;28;20064;-40
2022/08/25 03:41:54;;;;;;;5.13;4.63;;;20.40;65.20;;;23.32;45.88;97688.22;5008757;28;20077;-40
2022/08/25 03:44:22;;;;;;;5.20;4.45;;;20.40;64.90;;;23.31;45.84;97684.66;5007284;28;20054;-40
2022/08/25 03:46:51;;;;;;;4.90;4.40;;;20.40;65.00;;;23.29;45.53;97681.38;5007886;28;20356;-40
2022/08/25 03:49:22;;;;;;;5.95;4.78;;;20.40;64.90;;;23.27;45.63;97675.38;5007066;28;20052;-40
2022/08/25 03:51:52;;;;;;;5.72;4.15;;;20.40;64.90;;;23.27;45.71;97680.78;5009173;28;20272;-40
2022/08/25 03:54:24;;;;;;;4.97;4.38;;;20.40;64.90;;;23.27;45.66;97677.25;5007801;28;20054;-40
2022/08/25 03:56:52;;;;;;;4.90;4.40;;;20.40;64.70;;;23.27;45.54;97674.53;5008156;28;20057;-40
2022/08/25 03:59:20;;;;;;;5.20;4.47;;;20.40;64.40;;;23.26;45.40;97679.13;5007593;28;20056;-40
2022/08/25 04:01:49;;;;;;;7.18;4.95;;;20.40;64.40;;;23.23;45.79;97679.63;5008579;28;20185;-40
2022/08/25 04:04:22;;;;;;;6.55;5.15;;;20.30;64.60;;;23.24;45.75;97683.97;5007836;28;20049;-40
2022/08/25 04:06:50;;;;;;;5.65;5.05;;;20.30;64.80;;;23.23;45.75;97670.66;5007160;28;20063;-40
2022/08/25 04:09:17;;;;;;;6.03;5.32;;;20.30;64.80;;;23.23;45.72;97666.06;5008127;28;20266;-40
2022/08/25 04:11:45;;;;;;;8.35;5.68;;;20.40;65.00;;;23.22;45.90;97677.97;5006768;28;20053;-40
2022/08/25 04:14:20;;;;;;;6.43;4.63;;;20.30;65.00;;;23.22;45.80;97677.16;5008095;28;20058;-40
2022/08/25 04:16:48;;;;;;;8.73;5.30;;;20.30;65.10;;;23.18;46.30;97677.63;5007211;28;20058;-40
2022/08/25 04:19:16;;;;;;;6.70;5.40;;;20.30;65.30;;;23.17;45.95;97683.31;5006182;28;20054;-40
2022/08/25 04:21:44;;;;;;;7.72;4.72;;;20.30;65.30;;;23.14;45.89;97686.50;5008703;28;20057;-40
2022/08/25 04:24:13;;;;;;;5.90;5.10;;;20.30;65.30;;;23.12;46.60;97675.06;5006999;28;20056;-40
2022/08/25 04:26:49;;;;;;;6.20;5.28;;;20.30;65.80;;;23.13;46.28;97676.72;5007883;28;20061;-40
2022/08/25 04:29:22;;;;;;;6.55;5.47;;;20.30;66.00;;;23.14;46.25;97676.47;5007215;28;20056;-40
2022/08/25 04:31:52;;;;;;;8.40;5.22;;;20.30;65.70;;;23.15;46.11;97680.03;5007124;28;20067;-40
2022/08/25 04:34:24;;;;;;;9.50;5.15;;;20.40;65.50;;;23.12;46.17;97680.50;5007154;28;20073;-40
2022/08/25 04:37:22;;;;;;;7.22;5.40;;;20.30;65.90;;;23.13;46.22;97688.41;5010662;28;20048;-40
2022/08/25 04:39:50;;;;;;;5.95;5.32;;;20.30;66.10;;;23.09;46.18;97679.09;5007011;28;20058;-39
2022/08/25 04:42:18;;;;;;;8.43;5.95;;;20.30;66.00;;;23.06;46.52;97682.28;5006785;28;20057;-40
2022/08/25 04:44:46;;;;;;;7.95;5.30;;;20.20;65.90;;;23.06;46.87;97686.88;5007943;28;20267;-40
2022/08/25 04:47:14;;;;;;;8.48;6.20;;;20.20;66.20;;;23.04;46.77;97689.84;5006465;28;20045;-40
2022/08/25 04:49:42;;;;;;;7.30;5.40;;;20.20;66.10;;;23.02;46.83;97682.97;5007606;28;20268;-39
2022/08/25 04:52:10;;;;;;;6.47;5.72;;;20.20;66.30;;;22.98;46.93;97688.88;5006403;28;20054;-40
2022/08/25 04:54:42;;;;;;;8.20;5.68;;;20.10;66.40;;;22.98;46.80;97696.19;5006643;28;20048;-40
2022/08/25 04:57:10;;;;;;;9.00;5.78;;;20.10;66.70;;;22.99;46.75;97695.13;5007761;28;20072;-40
2022/08/25 04:59:38;;;;;;;9.07;5.72;;;20.10;66.70;;;22.99;46.77;97693.25;5006305;28;20057;-40
2022/08/25 05:02:06;;;;;;;8.93;5.20;;;20.10;66.80;;;23.00;46.93;97696.78;5007109;28;20054;-40
2022/08/25 05:04:35;;;;;;;8.98;6.20;;;20.10;66.90;;;23.01;47.17;97695.69;5006789;28;20386;-40
2022/08/25 05:07:04;;;;;;;10.68;5.95;;;20.20;67.00;;;22.99;46.98;97693.25;5006976;28;20058;-40
2022/08/25 05:09:32;;;;;;;7.82;5.95;;;20.20;67.10;;;23.00;47.19;97689.47;5006350;28;20442;-40
2022/08/25 05:12:01;;;;;;;10.55;5.85;;;20.20;67.00;;;23.00;46.89;97692.19;5021078;28;20338;-40
2022/08/25 05:14:31;;;;;;;8.18;5.80;;;20.20;67.20;;;23.02;47.02;97689.22;5006232;28;20268;-40
2022/08/25 05:16:59;;;;;;;7.28;5.88;;;20.30;67.30;;;23.07;47.50;97681.22;5006841;28;20060;-39
2022/08/25 05:19:27;;;;;;;7.63;5.85;;;20.30;67.30;;;23.11;47.39;97678.81;5006280;28;20237;-39
2022/08/25 05:21:55;;;;;;;8.70;6.13;;;20.40;67.20;;;23.14;47.51;97673.75;5006935;28;20064;-40
2022/08/25 05:24:26;;;;;;;6.18;5.53;;;20.40;67.30;;;23.19;47.65;97667.59;5005645;28;20068;-39
2022/08/25 05:26:55;;;;;;;9.15;6.20;;;20.40;67.20;;;23.24;47.17;97672.31;5007165;28;20068;-40
2022/08/25 05:29:23;;;;;;;7.47;6.13;;;20.50;67.20;;;23.25;47.51;97672.06;5007164;28;20060;-40
2022/08/25 05:31:52;;;;;;;7.90;6.60;;;20.50;67.30;;;23.27;47.81;97672.66;5008673;28;20064;-40
2022/08/25 05:34:21;;;;;;;7.03;5.57;;;20.50;67.30;;;23.31;47.48;97665.66;5010675;28;20145;-40
2022/08/25 05:36:49;;;;;;;7.40;6.10;;;20.60;67.40;;;23.36;47.42;97659.50;5010669;28;20072;-40
2022/08/25 05:39:17;;;;;;;9.80;5.70;;;20.60;67.50;;;23.37;47.39;97655.72;5010637;28;20052;-40
2022/08/25 05:41:45;;;;;;;9.02;6.72;;;20.70;67.60;;;23.41;48.04;97650.63;5009682;28;20046;-40
2022/08/25 05:44:13;;;;;;;6.97;5.53;;;20.70;67.70;;;23.44;47.71;97656.41;5011350;28;20061;-40
2022/08/25 05:46:48;;;;;;;7.88;6.28;;;20.80;67.60;;;23.49;47.64;97659.19;5010378;28;20058;-40
2022/08/25 05:49:17;;;;;;;7.90;6.90;;;20.80;67.70;;;23.52;47.72;97664.16;5025567;28;20056;-39
2022/08/25 05:51:45;;;;;;;8.93;5.68;;;20.80;67.80;;;23.55;48.04;97658.25;5009381;28;20060;-39
2022/08/25 05:54:13;;;;;;;10.10;5.97;;;20.90;67.80;;;23.56;47.97;97656.34;5010713;28;20050;-39
2022/08/25 05:56:41;;;;;;;8.40;6.45;;;20.90;67.80;;;23.59;47.92;97659.41;5008795;28;20057;-40
2022/08/25 05:59:08;;;;;;;12.15;6.57;;;20.80;67.70;;;23.61;47.54;97653.69;5011111;28;20072;-39
2022/08/25 06:04:32;;;;;;;13.40;8.05;;;21.00;67.70;;;23.73;47.55;97659.91;5024680;28;20068;-39
2022/08/25 06:07:00;;;;;;;12.65;6.32;;;21.00;67.60;;;23.73;47.53;97664.50;5010207;28;20061;-40
2022/08/25 06:09:28;;;;;;;7.75;6.20;;;21.10;67.60;;;23.78;47.52;97667.34;5010929;28;20054;-39
2022/08/25 06:11:56;;;;;;;7.25;6.35;;;21.10;67.40;;;23.82;47.61;97673.13;5008976;28;20056;-39
2022/08/25 06:14:24;;;;;;;7.20;6.22;;;21.20;67.20;;;23.84;47.51;97673.69;5009255;28;20053;-40
2022/08/25 06:16:52;;;;;;;7.93;6.00;;;21.20;66.80;;;23.88;47.06;97670.22;5009479;28;20229;-39
2022/08/25 06:19:21;;;;;;;6.88;6.10;;;21.30;66.20;;;23.92;47.11;97665.13;5010648;28;20050;-40
2022/08/25 06:21:54;;;;;;;7.70;6.10;;;21.30;66.10;;;23.94;47.14;97668.41;5010147;28;20050;-40
2022/08/25 06:24:25;;;;;;;6.72;5.40;;;21.30;66.20;;;23.94;47.01;97666.53;5009563;28;20053;-39
2022/08/25 06:26:53;;;;;;;12.23;6.22;;;21.30;66.00;;;23.97;47.01;97668.75;5007496;28;20059;-40
2022/08/25 06:29:21;;;;;;;8.13;5.75;;;21.30;65.90;;;24.00;47.08;97670.16;5009984;28;20880;-39
2022/08/25 06:31:49;;;;;;;7.35;5.45;;;21.40;66.00;;;24.05;46.96;97669.41;5009845;28;20879;-39
2022/08/25 06:34:18;;;;;;;10.32;6.53;;;21.40;65.80;;;24.09;47.07;97667.84;5009999;28;20058;-40
2022/08/25 06:36:50;;;;;;;7.05;6.10;;;21.50;65.70;;;24.13;46.66;97666.28;5009933;28;20076;-39
2022/08/25 06:39:19;;;;;;;9.02;5.72;;;21.50;65.50;;;24.15;46.90;97669.56;5009122;28;20060;-39
2022/08/25 06:41:55;;;;;;;8.82;6.95;;;21.60;65.60;;;24.21;46.85;97668.56;5008579;28;20248;-40
2022/08/25 06:44:26;;;;;;;6.50;5.22;;;21.60;65.50;;;24.27;46.92;97667.59;5007268;28;20058;-39
2022/08/25 06:46:54;;;;;;;6.85;5.75;;;21.70;65.30;;;24.29;46.91;97673.63;5007099;28;20057;-40
2022/08/25 06:49:26;;;;;;;6.57;5.97;;;21.80;65.20;;;24.36;46.82;97673.44;5009334;28;20054;-39
2022/08/25 06:51:54;;;;;;;8.60;5.78;;;21.80;65.10;;;24.45;46.66;97671.94;5008555;28;20045;-40
2022/08/25 06:54:22;;;;;;;8.65;5.70;;;21.90;64.90;;;24.50;46.65;97663.00;5008565;28;20336;-40
2022/08/25 06:56:50;;;;;;;6.15;5.53;;;21.90;65.00;;;24.56;46.61;97667.47;5008501;28;20340;-39
2022/08/25 06:59:18;;;;;;;9.68;6.10;;;22.00;64.80;;;24.62;46.61;97661.06;5008638;28;20057;-40
2022/08/25 07:01:46;;;;;;;9.68;7.00;;;22.00;64.70;;;24.68;46.40;97665.50;5008140;28;20064;-40
2022/08/25 07:04:17;;;;;;;14.13;7.30;;;22.10;64.60;;;24.71;46.46;97664.97;5004643;28;20038;-40
2022/08/25 07:06:45;;;;;;;9.45;5.43;;;22.20;64.60;;;24.73;46.56;97662.00;4988851;28;20052;-41
2022/08/25 07:09:14;;;;;;;7.45;5.80;;;22.20;64.30;;;24.79;46.18;97666.44;4990436;28;20240;-40
2022/08/25 07:11:44;;;;;;;6.90;6.10;;;22.20;64.10;;;24.82;46.26;97654.22;5004388;28;20066;-40
2022/08/25 07:14:15;;;;;;;6.53;5.80;;;22.30;64.30;;;24.88;46.32;97648.59;4989795;28;20722;-40
2022/08/25 07:16:44;;;;;;;7.55;5.88;;;22.30;64.30;;;24.92;46.00;97647.00;4989786;28;20050;-40
2022/08/25 07:19:19;;;;;;;10.95;6.72;;;22.40;64.00;;;24.96;46.26;97645.41;4989020;28;20046;-40
2022/08/25 07:21:52;;;;;;;7.65;6.72;;;22.40;64.00;;;25.04;46.10;97646.03;4989801;28;20241;-40
2022/08/25 07:24:22;;;;;;;7.38;6.38;;;22.40;63.70;;;25.06;45.85;97643.88;4989589;28;20061;-40
2022/08/25 07:26:50;;;;;;;10.48;6.95;;;22.50;63.40;;;25.10;45.78;97645.03;4989666;28;20241;-40
2022/08/25 07:29:27;;;;;;;7.22;6.32;;;22.50;63.30;;;25.14;45.73;97644.28;4989162;28;20058;-40
2022/08/25 07:32:01;;;;;;;7.88;6.57;;;22.60;63.40;;;25.18;45.64;97635.56;4988001;28;20319;-41
2022/08/25 07:37:21;;;;;;;8.77;6.03;;;22.70;63.10;;;25.26;45.57;97643.31;4987921;28;20058;-42
2022/08/25 07:40:20;;;;;;;10.23;7.97;;;22.70;62.90;;;25.29;45.59;97640.91;4987349;28;20369;-41
2022/08/25 07:42:50;;;;;;;12.50;6.70;;;22.70;62.70;;;25.29;45.51;97646.34;4988959;28;20054;-41
2022/08/25 07:45:20;;;;;;;10.88;6.97;;;22.80;62.50;;;25.32;45.69;97645.84;4987870;28;20050;-41
2022/08/25 07:47:49;;;;;;;8.65;6.82;;;22.80;62.60;;;25.33;45.78;97641.22;4988432;28;20054;-41
2022/08/25 07:50:19;;;;;;;9.73;7.22;;;22.80;62.60;;;25.38;45.85;97641.28;4988558;28;20068;-41
2022/08/25 07:52:47;;;;;;;7.00;5.85;;;22.90;62.50;;;25.43;45.66;97641.31;4988219;28;20253;-40
2022/08/25 07:55:23;;;;;;;9.73;6.72;;;22.90;62.40;;;25.48;45.53;97651.47;4988704;28;20042;-41
2022/08/25 07:57:53;;;;;;;6.82;5.95;;;23.00;62.30;;;25.52;45.27;97653.41;4989127;28;20050;-41
2022/08/25 08:00:29;;;;;;;7.05;6.03;;;23.10;62.10;;;25.62;45.22;97649.94;4988409;28;20366;-41
2022/08/25 08:02:58;;;;;;;9.18;5.90;;;23.10;62.00;;;25.67;45.20;97643.75;4986545;28;20333;-41
2022/08/25 08:05:27;;;;;;;8.80;7.03;;;23.10;61.70;;;25.68;44.77;97642.66;4989491;28;20100;-41
2022/08/25 08:07:57;;;;;;;8.27;6.05;;;23.20;61.40;;;25.70;45.15;97646.75;4987641;28;20056;-41
2022/08/25 08:10:25;;;;;;;6.22;5.30;;;23.30;61.40;;;25.75;45.33;97648.72;4988135;28;20049;-41
2022/08/25 08:13:13;;;;;;;9.15;6.53;;;23.30;61.40;;;25.84;44.56;97651.78;4988048;28;20054;-41
2022/08/25 08:15:46;;;;;;;8.82;5.57;;;23.40;61.20;;;25.88;44.65;97640.13;4987188;28;20061;-41
2022/08/25 08:18:15;;;;;;;6.93;5.43;;;23.40;60.90;;;25.90;44.39;97632.50;4987817;28;20060;-41
2022/08/25 08:20:47;;;;;;;7.45;6.40;;;23.50;60.50;;;25.96;44.48;97633.38;4987666;28;20054;-41
2022/08/25 08:23:16;;;;;;;6.55;5.15;;;23.50;60.20;;;26.03;44.40;97641.34;4988764;28;20058;-40
2022/08/25 08:25:44;;;;;;;8.63;4.65;;;23.60;60.20;;;26.08;44.23;97650.38;4988287;28;20046;-41
2022/08/25 08:28:12;;;;;;;7.18;5.32;;;23.60;60.00;;;26.13;44.11;97639.50;4987661;28;20040;-41
2022/08/25 08:30:40;;;;;;;5.63;5.03;;;23.70;59.90;;;26.18;44.14;97637.91;4987579;28;20354;-41
2022/08/25 08:33:22;;;;;;;7.65;5.93;;;23.70;59.50;;;26.25;43.83;97642.06;5000409;28;20058;-41
2022/08/25 08:36:10;;;;;;;11.70;6.25;;;23.80;60.00;;;26.33;43.68;97638.81;5015846;28;20054;-41
2022/08/25 08:38:41;;;;;;;8.50;5.50;;;23.90;58.90;;;26.38;43.44;97646.22;5017301;28;20034;-41
2022/08/25 08:45:02;;;;;;;14.38;6.55;;;24.00;58.90;;;26.52;43.61;97630.19;5016978;28;20279;-41
2022/08/25 08:47:57;;;;;;;6.93;5.72;;;24.00;58.30;;;26.56;43.00;97636.78;5027996;28;20050;-41
2022/08/25 08:51:00;;;;;;;5.57;5.05;;;24.00;58.30;;;26.57;43.27;97630.22;5033223;28;20042;-40
2022/08/25 08:54:05;;;;;;;10.75;6.07;;;24.10;58.20;;;26.64;43.18;97625.38;5018152;28;20239;-41
2022/08/25 08:56:47;;;;;;;6.72;5.75;;;24.20;58.10;;;26.68;43.04;97622.94;5031339;28;20041;-41
2022/08/25 08:59:26;;;;;;;6.75;6.05;;;24.30;58.30;;;26.73;43.29;97616.66;5018745;28;20033;-41
2022/08/25 09:02:00;;;;;;;7.88;5.72;;;24.30;58.20;;;26.76;43.29;97619.69;5034695;28;20056;-41
2022/08/25 09:04:36;;;;;;;8.00;6.10;;;24.30;58.20;;;26.83;43.09;97622.16;5018140;28;20057;-40
2022/08/25 09:07:20;;;;;;;7.85;5.57;;;24.40;57.70;;;26.85;42.68;97623.56;5018747;28;20255;-40
2022/08/25 09:09:49;;;;;;;6.72;5.20;;;24.50;56.90;;;26.88;42.73;97627.66;5032752;28;20046;-41
2022/08/25 09:13:01;;;;;;;6.53;5.80;;;24.50;57.20;;;26.94;42.20;97626.59;5016843;28;20054;-41
2022/08/25 09:19:02;;;;;;;8.13;6.68;;;24.60;56.40;;;27.06;41.84;97629.09;5031485;28;20056;-41
2022/08/25 09:21:49;;;;;;;6.65;5.95;;;24.60;55.40;;;27.10;41.58;97614.63;5031557;28;20038;-40
2022/08/25 09:25:06;;;;;;;5.70;5.10;;;24.70;55.00;;;27.15;41.59;97619.28;5033900;28;20046;-41
2022/08/25 09:28:02;;;;;;;10.82;5.00;;;24.70;54.40;;;27.19;41.07;97612.19;5016217;28;20053;-41
2022/08/25 09:31:11;;;;;;;7.65;5.35;;;24.70;54.40;;;27.25;40.72;97611.13;5018348;28;20056;-41
2022/08/25 09:33:39;;;;;;;5.40;4.72;;;24.80;53.50;;;27.29;40.70;97609.50;5018559;28;20061;-41
2022/08/25 09:36:08;;;;;;;8.88;6.05;;;24.90;54.30;;;27.29;40.57;97603.22;5017459;28;20041;-41
2022/08/25 09:38:36;;;;;;;8.95;5.57;;;24.90;54.50;;;27.34;40.84;97605.16;5019262;28;20583;-41
2022/08/25 09:41:07;;;;;;;7.47;5.20;;;24.90;54.80;;;27.37;40.98;97597.22;5018010;28;20037;-41
2022/08/25 09:43:41;;;;;;;5.78;5.15;;;25.00;54.80;;;27.42;41.33;97596.41;5018806;28;20434;-41
2022/08/25 09:46:25;;;;;;;11.00;5.10;;;25.00;55.00;;;27.47;41.25;97594.50;5020281;28;20056;-41
2022/08/25 09:49:09;;;;;;;7.50;5.40;;;25.10;54.70;;;27.53;41.12;97589.88;5021749;28;20046;-41
2022/08/25 09:51:39;;;;;;;7.15;5.72;;;25.10;54.80;;;27.58;40.81;97591.78;5021797;28;20056;-41
2022/08/25 09:54:12;;;;;;;9.15;6.25;;;25.10;54.40;;;27.59;40.72;97586.03;5021239;28;20052;-41
2022/08/25 09:57:00;;;;;;;6.05;4.78;;;25.20;54.30;;;27.63;40.55;97587.13;5022020;28;20243;-41
2022/08/25 09:59:35;;;;;;;5.85;5.25;;;25.20;53.20;;;27.67;40.51;97592.88;5021330;28;20048;-41
2022/08/25 10:02:27;;;;;;;6.90;5.50;;;25.30;53.30;;;27.74;40.06;97587.13;5022149;28;20050;-41
2022/08/25 10:04:55;;;;;;;6.30;5.65;;;25.30;53.10;;;27.79;40.04;97582.47;5037266;28;20382;-41
2022/08/25 10:07:31;;;;;;;7.55;5.15;;;25.40;53.10;;;27.85;39.56;97586.03;5021662;28;20046;-41
2022/08/25 10:10:14;;;;;;;5.20;4.70;;;25.50;52.70;;;27.91;39.41;97587.69;5022084;28;20054;-41
2022/08/25 10:12:46;;;;;;;7.95;5.35;;;25.50;52.40;;;27.96;39.74;97578.69;5021130;28;20045;-41
2022/08/25 10:15:26;;;;;;;5.93;5.32;;;25.50;52.30;;;27.99;39.17;97573.44;5020517;28;20041;-43
2022/08/25 10:18:28;;;;;;;5.95;4.78;;;25.60;52.30;;;28.05;39.21;97563.31;5020601;28;20060;-42
2022/08/25 10:21:05;;;;;;;6.00;5.30;;;25.60;50.60;;;28.13;38.98;97557.31;5020237;28;20056;-42
2022/08/25 10:23:46;;;;;;;5.68;4.78;;;25.70;50.40;;;28.16;38.29;97559.47;5018677;28;20061;-41
2022/08/25 10:27:35;;;;;;;6.32;4.53;;;25.80;50.60;;;28.26;38.74;97553.16;5016825;28;20057;-42
2022/08/25 10:30:51;;;;;;;6.75;5.15;;;25.80;49.20;;;28.39;38.54;97555.31;5014995;28;20088;-41
2022/08/25 10:33:56;;;;;;;5.25;4.75;;;25.90;49.40;;;28.45;38.47;97553.38;5012273;28;20058;-40
2022/08/25 10:36:42;;;;;;;5.72;4.22;;;26.00;49.00;;;28.50;37.63;97549.78;5011657;28;20046;-40
2022/08/25 10:39:43;;;;;;;7.32;5.22;;;26.10;50.00;;;28.50;37.77;97547.06;5012645;28;20046;-40
2022/08/25 10:42:55;;;;;;;6.47;5.68;;;26.10;48.70;;;28.52;37.32;97550.34;5009020;28;20053;-40
2022/08/25 10:45:44;;;;;;;5.68;4.78;;;26.10;48.30;;;28.59;37.32;97548.16;5011777;28;20557;-40
2022/08/25 10:48:52;;;;;;;6.22;5.47;;;26.10;49.40;;;28.67;37.89;97544.81;5010670;28;20244;-40
2022/08/25 10:51:38;;;;;;;6.00;4.63;;;26.20;48.50;;;28.71;36.39;97543.16;5011558;28;20056;-40
2022/08/25 10:54:27;;;;;;;6.40;5.10;;;26.30;48.10;;;28.71;36.94;97529.44;5012350;28;20060;-40
2022/08/25 10:57:07;;;;;;;5.90;4.88;;;26.30;46.80;;;28.75;36.22;97532.44;5010088;28;20063;-40